Time;durP1;ratioP1;P1;durP2;ratioP2;P2;SDS_P1;SDS_P2;PMS_P1;PMS_P2;Temp;Humidity;BMP_temperature;BMP_pressure;BME280_temperature;BME280_humidity;BME280_pressure;Samples;Min_cycle;Max_cycle;Signal;HPM_P1;HPM_P2
2023/06/20 00:01:20;;;;;;;0.35;0.35;;;;;;;10.28;100.00;100072.56;5021214;28;20052;-86
2023/06/20 00:03:46;;;;;;;0.30;0.30;;;;;;;10.45;100.00;100083.06;5038007;28;20040;-84
2023/06/20 00:06:12;;;;;;;0.40;0.40;;;;;;;10.49;100.00;100085.19;5021190;28;20483;-86
2023/06/20 00:08:37;;;;;;;0.50;0.40;;;;;;;10.48;100.00;100088.91;5021048;28;20075;-83
2023/06/20 00:11:03;;;;;;;0.40;0.40;;;;;;;10.36;100.00;100062.75;5037154;28;20029;-83
2023/06/20 00:13:29;;;;;;;0.52;0.40;;;;;;;10.42;100.00;100078.09;5020762;28;20032;-86
2023/06/20 00:15:57;;;;;;;0.40;0.40;;;;;;;10.41;100.00;100081.81;5020514;28;20463;-85
2023/06/20 00:18:24;;;;;;;0.30;0.30;;;;;;;10.36;100.00;100082.38;5037510;28;20033;-85
2023/06/20 00:20:53;;;;;;;0.30;0.30;;;;;;;10.36;100.00;100095.00;5004647;28;20068;-84
2023/06/20 00:23:21;;;;;;;0.30;0.30;;;;;;;10.26;100.00;100088.03;5021409;28;20040;-89
2023/06/20 00:25:46;;;;;;;0.30;0.30;;;;;;;10.21;100.00;100095.00;5036970;28;20485;-87
2023/06/20 00:28:16;;;;;;;0.30;0.30;;;;;;;10.13;100.00;100096.78;5037357;28;20028;-89
2023/06/20 00:30:41;;;;;;;0.30;0.30;;;;;;;10.08;100.00;100091.16;5021255;28;20426;-89
2023/06/20 00:33:07;;;;;;;0.50;0.40;;;;;;;10.02;100.00;100083.81;5053390;28;20090;-89
2023/06/20 00:35:33;;;;;;;0.30;0.30;;;;;;;10.05;100.00;100088.81;5020683;28;20059;-84
2023/06/20 00:38:00;;;;;;;0.30;0.30;;;;;;;10.03;100.00;100092.72;5020581;28;20029;-87
2023/06/20 00:40:27;;;;;;;0.28;0.28;;;;;;;9.98;100.00;100087.94;5036953;28;20032;-85
2023/06/20 00:42:53;;;;;;;0.30;0.30;;;;;;;9.95;100.00;100080.25;5036527;28;20029;-91
2023/06/20 00:45:22;;;;;;;0.30;0.30;;;;;;;9.98;100.00;100089.78;5036836;28;20036;-89
2023/06/20 00:47:48;;;;;;;0.30;0.30;;;;;;;9.93;100.00;100084.97;5053429;28;20041;-81
2023/06/20 00:50:14;;;;;;;0.40;0.40;;;;;;;9.94;100.00;100075.88;5019829;28;20132;-84
2023/06/20 00:52:40;;;;;;;0.40;0.40;;;;;;;9.89;100.00;100080.97;5020304;28;20136;-85
2023/06/20 00:55:06;;;;;;;0.40;0.40;;;;;;;9.78;100.00;100071.56;5036311;28;20060;-88
2023/06/20 00:57:32;;;;;;;0.30;0.30;;;;;;;9.96;100.00;100079.22;5003826;28;20148;-90
2023/06/20 00:59:58;;;;;;;0.30;0.30;;;;;;;10.11;100.00;100080.03;5019977;28;20479;-89
2023/06/20 01:02:23;;;;;;;0.30;0.30;;;;;;;10.17;100.00;100074.91;5020094;28;20039;-84
2023/06/20 01:04:49;;;;;;;0.20;0.20;;;;;;;10.23;100.00;100074.16;5036107;28;20036;-86
2023/06/20 01:07:24;;;;;;;0.30;0.30;;;;;;;10.26;100.00;100076.44;5036285;28;20037;-85
2023/06/20 01:09:57;;;;;;;0.30;0.30;;;;;;;10.24;100.00;100082.03;5053174;28;20048;-88
2023/06/20 01:12:36;;;;;;;0.30;0.30;;;;;;;10.08;100.00;100090.28;5053035;28;20049;-87
2023/06/20 01:15:21;;;;;;;0.30;0.30;;;;;;;9.90;100.00;100091.53;5019929;28;20028;-85
2023/06/20 01:17:55;;;;;;;0.40;0.40;;;;;;;9.82;100.00;100088.16;5052642;28;20032;-87
2023/06/20 01:20:26;;;;;;;0.40;0.40;;;;;;;9.76;100.00;100089.69;5053099;28;20124;-88
2023/06/20 01:23:14;;;;;;;0.30;0.30;;;;;;;9.81;100.00;100089.16;5052860;28;20040;-87
2023/06/20 01:25:55;;;;;;;0.30;0.30;;;;;;;9.87;100.00;100073.13;5036497;28;20132;-86
2023/06/20 01:28:30;;;;;;;0.40;0.40;;;;;;;9.93;100.00;100073.41;5036587;28;20471;-86
2023/06/20 01:31:16;;;;;;;0.40;0.40;;;;;;;10.22;100.00;100083.25;5053071;28;20033;-89
2023/06/20 01:33:49;;;;;;;0.32;0.32;;;;;;;10.24;100.00;100063.22;5036827;28;20487;-84
2023/06/20 01:36:16;;;;;;;0.30;0.30;;;;;;;10.40;100.00;100072.06;5035849;28;20625;-85
2023/06/20 01:38:43;;;;;;;0.30;0.30;;;;;;;10.45;100.00;100088.44;5052386;28;20490;-84
2023/06/20 01:41:10;;;;;;;0.30;0.30;;;;;;;10.32;100.00;100091.84;5036402;28;20033;-85
2023/06/20 01:43:37;;;;;;;0.30;0.30;;;;;;;10.22;100.00;100084.06;5052710;28;20537;-87
2023/06/20 01:46:05;;;;;;;0.30;0.30;;;;;;;10.13;100.00;100085.19;5020162;28;20067;-87
2023/06/20 01:48:32;;;;;;;0.30;0.30;;;;;;;10.05;100.00;100083.44;5052606;28;20437;-89
2023/06/20 01:50:58;;;;;;;0.30;0.30;;;;;;;9.94;100.00;100069.69;5052279;28;20052;-91
2023/06/20 01:53:24;;;;;;;0.40;0.40;;;;;;;10.07;100.00;100073.34;5046749;28;20028;-82
2023/06/20 01:55:52;;;;;;;0.30;0.30;;;;;;;10.02;100.00;100066.88;5063297;28;20037;-83
2023/06/20 01:58:18;;;;;;;0.30;0.30;;;;;;;10.03;100.00;100085.50;5025838;28;20033;-87
2023/06/20 02:00:45;;;;;;;0.30;0.30;;;;;;;9.87;100.00;100066.91;5055761;28;20052;-91
2023/06/20 02:03:11;;;;;;;0.30;0.30;;;;;;;9.90;100.00;100083.50;5023980;28;20037;-84
2023/06/20 02:05:38;;;;;;;0.30;0.30;;;;;;;9.93;100.00;100082.28;5039791;28;20041;-86
2023/06/20 02:08:05;;;;;;;0.30;0.30;;;;;;;9.87;100.00;100075.81;5056518;28;20037;-81
2023/06/20 02:10:31;;;;;;;0.40;0.40;;;;;;;9.90;100.00;100090.72;5039145;28;20029;-86
2023/06/20 02:12:57;;;;;;;0.30;0.30;;;;;;;9.82;100.00;100083.59;5039489;28;20033;-85
2023/06/20 02:15:25;;;;;;;0.30;0.30;;;;;;;9.80;100.00;100090.19;5023034;28;20103;-88
2023/06/20 02:17:51;;;;;;;0.30;0.30;;;;;;;9.73;100.00;100083.88;5039514;28;20037;-85
2023/06/20 02:20:17;;;;;;;0.30;0.30;;;;;;;9.71;100.00;100076.00;5039405;28;20033;-85
2023/06/20 02:22:45;;;;;;;0.30;0.30;;;;;;;9.75;100.00;100081.84;5023092;28;20044;-89
2023/06/20 02:25:12;;;;;;;0.30;0.30;;;;;;;9.70;100.00;100060.94;5006822;28;20025;-85
2023/06/20 02:27:39;;;;;;;0.40;0.40;;;;;;;9.71;100.00;100051.00;5022622;28;20029;-85
2023/06/20 02:30:08;;;;;;;0.30;0.30;;;;;;;9.88;100.00;100065.91;5039189;28;20430;-88
2023/06/20 02:32:33;;;;;;;0.25;0.25;;;;;;;9.94;100.00;100067.81;5039097;28;20029;-85
2023/06/20 02:34:59;;;;;;;0.32;0.32;;;;;;;9.89;100.00;100073.75;5022420;28;20036;-81
2023/06/20 02:37:28;;;;;;;0.30;0.30;;;;;;;9.85;100.00;100068.97;5039112;28;20086;-86
2023/06/20 02:39:55;;;;;;;0.30;0.30;;;;;;;9.82;100.00;100085.47;5039047;28;20032;-84
2023/06/20 02:42:21;;;;;;;0.30;0.30;;;;;;;9.76;100.00;100086.19;5022704;28;20036;-84
2023/06/20 02:44:47;;;;;;;0.40;0.40;;;;;;;9.74;100.00;100086.38;5022542;28;20036;-88
2023/06/20 02:47:44;;;;;;;0.40;0.40;;;;;;;9.68;100.00;100074.56;5006193;28;20045;-86
2023/06/20 02:50:16;;;;;;;0.30;0.30;;;;;;;9.64;100.00;100081.28;5038781;28;20475;-85
2023/06/20 02:53:08;;;;;;;0.30;0.30;;;;;;;9.62;100.00;100079.81;5022447;28;20036;-85
2023/06/20 02:55:38;;;;;;;0.30;0.30;;;;;;;9.53;100.00;100089.81;5007827;28;20036;-82
2023/06/20 02:58:12;;;;;;;0.20;0.20;;;;;;;9.49;100.00;100090.38;5054750;28;20037;-82
2023/06/20 03:00:43;;;;;;;0.30;0.30;;;;;;;9.40;100.00;100086.97;5054958;28;20037;-87
2023/06/20 03:03:12;;;;;;;0.30;0.30;;;;;;;9.37;100.00;100090.84;5022303;28;20361;-85
2023/06/20 03:05:40;;;;;;;0.30;0.30;;;;;;;9.36;100.00;100091.00;5005957;28;20040;-84
2023/06/20 03:08:06;;;;;;;0.60;0.40;;;;;;;9.34;100.00;100085.84;5021689;28;20174;-91
2023/06/20 03:10:32;;;;;;;0.30;0.30;;;;;;;9.37;100.00;100084.66;5022111;28;20120;-87
2023/06/20 03:12:59;;;;;;;0.30;0.30;;;;;;;9.34;100.00;100072.44;5004818;28;20127;-89
2023/06/20 03:15:24;;;;;;;0.30;0.30;;;;;;;9.36;100.00;100062.31;5038546;28;20033;-85
2023/06/20 03:17:50;;;;;;;0.40;0.40;;;;;;;9.68;100.00;100081.75;5038451;28;20036;-81
2023/06/20 03:20:16;;;;;;;0.32;0.32;;;;;;;9.85;100.00;100071.66;5021944;28;20043;-87
2023/06/20 03:22:41;;;;;;;0.30;0.30;;;;;;;10.20;100.00;100079.91;5022071;28;20068;-87
2023/06/20 03:25:07;;;;;;;0.30;0.30;;;;;;;10.43;100.00;100090.53;5022048;28;20102;-85
2023/06/20 03:27:33;;;;;;;0.30;0.30;;;;;;;10.42;100.00;100091.53;5021705;28;20047;-85
2023/06/20 03:30:03;;;;;;;0.30;0.30;;;;;;;10.28;100.00;100067.19;5038160;28;20072;-85
2023/06/20 03:32:29;;;;;;;0.30;0.30;;;;;;;10.27;100.00;100075.44;5006471;28;20029;-82
2023/06/20 03:34:55;;;;;;;0.22;0.22;;;;;;;10.23;100.00;100079.53;5021133;28;20372;-82
2023/06/20 03:37:20;;;;;;;0.30;0.30;;;;;;;10.13;100.00;100086.03;5021038;28;20407;-83
2023/06/20 03:39:46;;;;;;;0.30;0.30;;;;;;;10.01;100.00;100079.47;5037444;28;20028;-90
2023/06/20 03:42:12;;;;;;;0.30;0.30;;;;;;;9.90;100.00;100078.13;5037699;28;20041;-85
2023/06/20 03:44:37;;;;;;;0.35;0.35;;;;;;;9.68;100.00;100055.75;5021651;28;20124;-88
2023/06/20 03:47:03;;;;;;;0.40;0.40;;;;;;;9.71;100.00;100077.84;5021454;28;20486;-85
2023/06/20 03:49:30;;;;;;;0.30;0.30;;;;;;;9.59;100.00;100061.41;5037755;28;20479;-85
2023/06/20 03:51:55;;;;;;;0.30;0.30;;;;;;;9.56;100.00;100067.97;5021075;28;20095;-86
2023/06/20 03:54:21;;;;;;;0.30;0.30;;;;;;;9.62;100.00;100069.91;5021264;28;20031;-85
2023/06/20 03:56:47;;;;;;;0.30;0.30;;;;;;;9.72;100.00;100072.31;5055068;28;20033;-86
2023/06/20 03:59:15;;;;;;;0.30;0.30;;;;;;;9.88;100.00;100071.28;5004812;28;20079;-86
2023/06/20 04:01:41;;;;;;;0.40;0.40;;;;;;;10.23;100.00;100071.47;5037783;28;20029;-89
2023/06/20 04:04:07;;;;;;;0.30;0.30;;;;;;;10.60;100.00;100062.34;5021291;28;20029;-90
2023/06/20 04:06:32;;;;;;;0.40;0.40;;;;;;;10.71;100.00;100064.50;5020749;28;20067;-84
2023/06/20 04:08:58;;;;;;;0.30;0.30;;;;;;;10.81;100.00;100069.56;5020901;28;20039;-86
2023/06/20 04:11:24;;;;;;;0.30;0.30;;;;;;;10.83;100.00;100070.19;5021099;28;20379;-86
2023/06/20 04:13:50;;;;;;;0.60;0.40;;;;;;;11.04;100.00;100071.19;5004548;28;20054;-85
2023/06/20 04:16:15;;;;;;;0.47;0.40;;;;;;;11.07;100.00;100070.81;5020817;28;20044;-83
2023/06/20 04:18:42;;;;;;;0.43;0.43;;;;;;;11.13;100.00;100073.53;5037192;28;20025;-87
2023/06/20 04:21:07;;;;;;;0.50;0.40;;;;;;;11.02;100.00;100059.78;5020669;28;20494;-85
2023/06/20 04:23:33;;;;;;;0.45;0.40;;;;;;;10.99;100.00;100067.22;5019912;28;20036;-83
2023/06/20 04:25:59;;;;;;;0.30;0.30;;;;;;;11.03;100.00;100075.72;5020373;28;20456;-84
2023/06/20 04:28:24;;;;;;;0.30;0.30;;;;;;;10.98;100.00;100072.78;5020535;28;20036;-85
2023/06/20 04:30:52;;;;;;;0.35;0.35;;;;;;;10.96;100.00;100075.69;5020686;28;20153;-86
2023/06/20 04:33:19;;;;;;;0.30;0.30;;;;;;;10.96;100.00;100083.75;5020833;28;20028;-85
2023/06/20 04:35:44;;;;;;;0.30;0.30;;;;;;;11.02;100.00;100074.06;5037055;28;20119;-85
2023/06/20 04:38:10;;;;;;;0.30;0.30;;;;;;;11.04;100.00;100079.28;5053174;28;20033;-85
2023/06/20 04:40:36;;;;;;;0.25;0.25;;;;;;;11.08;100.00;100077.84;5020261;28;20115;-83
2023/06/20 04:43:03;;;;;;;0.52;0.40;;;;;;;11.13;100.00;100086.16;5036742;28;20032;-86
2023/06/20 04:45:30;;;;;;;0.45;0.40;;;;;;;11.15;100.00;100078.72;5036903;28;20036;-87
2023/06/20 04:47:56;;;;;;;0.30;0.30;;;;;;;11.13;100.00;100075.38;5036591;28;20083;-82
2023/06/20 04:50:22;;;;;;;0.32;0.32;;;;;;;11.09;100.00;100079.53;5036455;28;20498;-87
2023/06/20 04:52:48;;;;;;;0.40;0.40;;;;;;;11.04;100.00;100081.97;5036427;28;20136;-85
2023/06/20 04:55:14;;;;;;;0.30;0.30;;;;;;;10.96;100.00;100074.88;5036403;28;20527;-85
2023/06/20 04:57:40;;;;;;;0.30;0.30;;;;;;;10.92;100.00;100073.56;5019916;28;20111;-82
2023/06/20 05:00:12;;;;;;;0.35;0.35;;;;;;;10.84;100.00;100079.94;5052859;28;20052;-89
2023/06/20 05:02:42;;;;;;;0.30;0.30;;;;;;;10.76;100.00;100074.69;5037256;28;20082;-84
2023/06/20 05:05:11;;;;;;;0.40;0.40;;;;;;;10.67;100.00;100065.09;5036839;28;20127;-84
2023/06/20 05:07:39;;;;;;;0.30;0.30;;;;;;;10.69;100.00;100073.78;5020038;28;20071;-83
2023/06/20 05:10:06;;;;;;;0.30;0.30;;;;;;;10.67;100.00;100076.69;5021844;28;20057;-85
2023/06/20 05:12:32;;;;;;;0.40;0.40;;;;;;;10.66;100.00;100074.19;5026903;28;20037;-84
2023/06/20 05:14:59;;;;;;;0.30;0.30;;;;;;;10.69;100.00;100080.03;5058590;28;20021;-83
2023/06/20 05:17:24;;;;;;;0.32;0.32;;;;;;;10.70;100.00;100070.91;5054392;28;20108;-86
2023/06/20 05:19:50;;;;;;;0.43;0.40;;;;;;;10.73;100.00;100080.47;5020061;28;20064;-84
2023/06/20 05:22:15;;;;;;;0.40;0.40;;;;;;;10.85;100.00;100089.66;5019708;28;20037;-86
2023/06/20 05:24:42;;;;;;;0.35;0.35;;;;;;;10.89;100.00;100085.56;5019812;28;20063;-83
2023/06/20 05:27:08;;;;;;;0.38;0.38;;;;;;;11.12;100.00;100089.88;5052452;28;20029;-88
2023/06/20 05:29:33;;;;;;;0.40;0.40;;;;;;;11.37;100.00;100080.31;5019654;28;20525;-83
2023/06/20 05:31:59;;;;;;;0.40;0.40;;;;;;;11.37;100.00;100090.25;5019585;28;20066;-83
2023/06/20 05:34:25;;;;;;;0.40;0.40;;;;;;;11.30;100.00;100092.91;5052533;28;20033;-82
2023/06/20 05:36:50;;;;;;;0.30;0.30;;;;;;;11.22;100.00;100093.88;5023176;28;20098;-86
2023/06/20 05:39:16;;;;;;;0.35;0.35;;;;;;;11.32;100.00;100090.00;5023599;28;20098;-85
2023/06/20 05:41:42;;;;;;;0.40;0.40;;;;;;;11.85;100.00;100090.28;5023548;28;20064;-85
2023/06/20 05:44:07;;;;;;;0.40;0.40;;;;;;;12.65;100.00;100085.16;5024082;28;20132;-84
2023/06/20 05:46:33;;;;;;;0.40;0.40;;;;;;;13.50;100.00;100097.00;5024201;28;20082;-85
2023/06/20 05:49:03;;;;;;;0.40;0.40;;;;;;;13.79;100.00;100095.66;5023517;28;20025;-85
2023/06/20 05:51:29;;;;;;;0.43;0.40;;;;;;;14.49;100.00;100098.44;5040345;28;20037;-89
2023/06/20 05:53:57;;;;;;;0.40;0.40;;;;;;;15.12;100.00;100100.28;5039880;28;20025;-85
2023/06/20 05:56:23;;;;;;;0.30;0.30;;;;;;;15.62;100.00;100085.84;5023592;28;20033;-85
2023/06/20 05:58:49;;;;;;;0.40;0.40;;;;;;;15.83;100.00;100107.13;5055930;28;20040;-85
2023/06/20 06:01:15;;;;;;;0.40;0.40;;;;;;;15.73;100.00;100104.09;5023409;28;20036;-83
2023/06/20 06:03:40;;;;;;;0.30;0.30;;;;;;;15.12;100.00;100108.41;5023016;28;20044;-82
2023/06/20 06:06:09;;;;;;;0.40;0.40;;;;;;;14.95;100.00;100108.16;5022890;28;20118;-85
2023/06/20 06:08:35;;;;;;;0.40;0.40;;;;;;;16.02;100.00;100107.09;5023577;28;20118;-84
2023/06/20 06:11:01;;;;;;;0.50;0.50;;;;;;;16.96;100.00;100096.59;5039395;28;20040;-86
2023/06/20 06:13:28;;;;;;;0.40;0.40;;;;;;;17.87;100.00;100116.13;5022902;28;20068;-86
2023/06/20 06:15:53;;;;;;;0.40;0.40;;;;;;;18.59;100.00;100114.78;5055857;28;20029;-83
2023/06/20 06:18:19;;;;;;;0.50;0.50;;;;;;;19.24;100.00;100114.31;5022774;28;20024;-84
2023/06/20 06:20:45;;;;;;;0.40;0.40;;;;;;;19.77;100.00;100120.28;5006488;28;20048;-87
2023/06/20 06:23:11;;;;;;;0.40;0.40;;;;;;;20.39;100.00;100119.94;5039347;28;20078;-85
2023/06/20 06:25:37;;;;;;;0.40;0.40;;;;;;;20.84;100.00;100115.22;5022794;28;20076;-86
2023/06/20 06:28:02;;;;;;;0.40;0.40;;;;;;;21.38;100.00;100114.31;5022662;28;20043;-81
2023/06/20 06:30:28;;;;;;;0.40;0.40;;;;;;;21.88;100.00;100115.69;5022630;28;20433;-83
2023/06/20 06:32:54;;;;;;;0.45;0.40;;;;;;;21.20;100.00;100116.34;5022582;28;20408;-83
2023/06/20 06:35:20;;;;;;;0.45;0.45;;;;;;;20.01;100.00;100114.59;5022684;28;20040;-83
2023/06/20 06:37:47;;;;;;;0.40;0.40;;;;;;;19.87;100.00;100119.56;5039179;28;20033;-84
2023/06/20 06:40:13;;;;;;;0.40;0.40;;;;;;;19.64;100.00;100115.97;5022297;28;20028;-85
2023/06/20 06:42:39;;;;;;;0.43;0.43;;;;;;;19.61;100.00;100119.22;5022166;28;20036;-84
2023/06/20 06:45:05;;;;;;;0.40;0.40;;;;;;;20.31;100.00;100119.56;5022423;28;20032;-83
2023/06/20 06:47:31;;;;;;;0.43;0.43;;;;;;;21.28;100.00;100115.03;5021285;28;20120;-85
2023/06/20 06:49:57;;;;;;;0.60;0.60;;;;;;;21.46;100.00;100117.41;5054794;28;20053;-83
2023/06/20 06:52:23;;;;;;;0.40;0.40;;;;;;;21.78;100.00;100111.00;5022090;28;20041;-85
2023/06/20 06:54:48;;;;;;;0.50;0.50;;;;;;;22.25;100.00;100110.13;5022164;28;20033;-84
2023/06/20 06:57:14;;;;;;;0.55;0.55;;;;;;;22.60;100.00;100114.06;5022161;28;20029;-83
2023/06/20 06:59:40;;;;;;;0.43;0.43;;;;;;;22.73;97.85;100098.97;5022074;28;20064;-83
2023/06/20 07:02:06;;;;;;;0.65;0.65;;;;;;;22.72;97.66;100120.09;5022143;28;20041;-84
2023/06/20 07:04:32;;;;;;;1.45;1.27;;;;;;;22.98;98.25;100112.75;5021744;28;20061;-84
2023/06/20 07:06:58;;;;;;;3.20;2.75;;;;;;;23.24;97.52;100115.50;5021714;28;20071;-85
2023/06/20 07:09:23;;;;;;;2.00;1.80;;;;;;;23.60;94.95;100124.47;5021905;28;20038;-83
2023/06/20 07:11:49;;;;;;;1.77;1.60;;;;;;;23.78;93.86;100111.28;5038316;28;20035;-85
2023/06/20 07:14:15;;;;;;;2.28;2.00;;;;;;;23.93;95.83;100111.25;5021748;28;20031;-84
2023/06/20 07:16:41;;;;;;;2.83;2.58;;;;;;;23.32;98.90;100117.66;5038307;28;20106;-85
2023/06/20 07:19:07;;;;;;;2.78;1.90;;;;;;;23.35;96.08;100114.38;5037986;28;20033;-87
2023/06/20 07:21:33;;;;;;;4.55;2.50;;;;;;;23.90;94.23;100112.63;5038158;28;20490;-84
2023/06/20 07:23:58;;;;;;;3.85;2.50;;;;;;;24.40;95.96;100115.41;5021719;28;20401;-85
2023/06/20 07:26:24;;;;;;;4.38;2.38;;;;;;;25.05;97.06;100119.94;5021579;28;20382;-86
2023/06/20 07:28:50;;;;;;;4.07;3.00;;;;;;;25.77;93.74;100117.31;5038100;28;20464;-81
2023/06/20 07:31:19;;;;;;;3.97;2.58;;;;;;;25.99;88.08;100116.84;5021473;28;20043;-85
2023/06/20 07:33:45;;;;;;;3.45;2.42;;;;;;;25.95;90.11;100116.59;5037895;28;20464;-86
2023/06/20 07:36:11;;;;;;;3.58;2.28;;;;;;;25.83;85.08;100119.75;5054226;28;20113;-85
2023/06/20 07:38:37;;;;;;;4.03;2.33;;;;;;;25.22;91.35;100112.13;5021143;28;20129;-89
2023/06/20 07:41:03;;;;;;;4.38;2.40;;;;;;;24.35;93.50;100120.94;5021250;28;20056;-86
2023/06/20 07:43:29;;;;;;;3.70;2.45;;;;;;;25.13;92.74;100116.56;5021512;28;20052;-85
2023/06/20 07:45:54;;;;;;;4.68;2.42;;;;;;;25.73;88.47;100121.81;5021207;28;20041;-85
2023/06/20 07:48:24;;;;;;;3.97;2.40;;;;;;;25.58;88.89;100118.09;5021101;28;20033;-85
2023/06/20 07:50:49;;;;;;;5.50;2.40;;;;;;;24.55;93.39;100111.78;5053749;28;20021;-84
2023/06/20 07:53:15;;;;;;;4.90;2.25;;;;;;;25.18;92.34;100111.06;5037312;28;20036;-84
2023/06/20 07:55:41;;;;;;;3.67;2.20;;;;;;;25.55;88.27;100106.84;5020894;28;20037;-85
2023/06/20 07:58:07;;;;;;;2.75;1.92;;;;;;;25.63;87.73;100103.44;5020292;28;20075;-84
2023/06/20 08:00:32;;;;;;;4.63;2.60;;;;;;;26.24;90.40;100107.41;5020748;28;20052;-85
2023/06/20 08:02:58;;;;;;;3.33;2.55;;;;;;;26.85;89.92;100105.72;5020828;28;20501;-87
2023/06/20 08:05:24;;;;;;;4.38;2.30;;;;;;;26.86;84.12;100110.13;5020552;28;20048;-84
2023/06/20 08:07:49;;;;;;;3.83;2.22;;;;;;;25.75;86.23;100097.53;5053535;28;20029;-84
2023/06/20 08:10:15;;;;;;;3.45;1.90;;;;;;;25.04;88.96;100101.81;5020476;28;20071;-84
2023/06/20 08:12:41;;;;;;;4.65;2.40;;;;;;;25.08;92.51;100100.91;5036692;28;20037;-85
2023/06/20 08:15:07;;;;;;;3.38;2.25;;;;;;;25.73;92.48;100097.84;5020464;28;20426;-85
2023/06/20 08:17:33;;;;;;;3.13;2.33;;;;;;;26.23;87.03;100106.59;5020309;28;20041;-84
2023/06/20 08:20:06;;;;;;;2.70;1.90;;;;;;;26.34;84.74;100100.97;5020335;28;20029;-83
2023/06/20 08:22:45;;;;;;;2.78;1.70;;;;;;;26.40;83.86;100106.09;5037494;28;20128;-84
2023/06/20 08:25:13;;;;;;;4.13;2.40;;;;;;;26.52;83.17;100103.75;5053140;28;20391;-84
2023/06/20 08:27:38;;;;;;;4.35;2.28;;;;;;;26.69;84.36;100103.22;5053028;28;20033;-84
2023/06/20 08:30:04;;;;;;;3.90;2.22;;;;;;;27.41;84.74;100113.06;5052770;28;20032;-83
2023/06/20 08:32:30;;;;;;;2.58;2.10;;;;;;;27.31;83.00;100107.72;5036435;28;20428;-84
2023/06/20 08:34:56;;;;;;;4.50;2.20;;;;;;;25.51;87.71;100105.78;5052934;28;20063;-83
2023/06/20 08:37:41;;;;;;;4.43;2.88;;;;;;;24.24;96.67;100100.09;5053025;28;20032;-84
2023/06/20 08:40:09;;;;;;;3.42;2.17;;;;;;;24.98;94.37;100090.84;5036134;28;20029;-82
2023/06/20 08:42:35;;;;;;;4.63;2.40;;;;;;;25.80;90.39;100081.78;5036309;28;20033;-82
2023/06/20 08:45:02;;;;;;;3.90;2.60;;;;;;;26.47;91.08;100091.94;5053708;28;20025;-83
2023/06/20 08:47:28;;;;;;;5.90;2.70;;;;;;;27.23;88.54;100094.63;5036530;28;20498;-83
2023/06/20 08:49:54;;;;;;;2.83;1.98;;;;;;;27.67;82.58;100094.06;5019894;28;20060;-84
2023/06/20 08:52:26;;;;;;;5.38;2.28;;;;;;;27.40;79.07;100098.44;5052734;28;20028;-83
2023/06/20 08:54:52;;;;;;;3.80;2.15;;;;;;;26.84;81.86;100093.88;5052920;28;20446;-83
2023/06/20 08:57:18;;;;;;;3.80;2.63;;;;;;;27.42;82.66;100098.16;5052268;28;20068;-84
2023/06/20 08:59:44;;;;;;;3.67;2.67;;;;;;;28.24;80.53;100089.06;5052578;28;20455;-81
2023/06/20 09:02:11;;;;;;;6.55;3.17;;;;;;;28.14;76.47;100094.00;5052315;28;20059;-82
2023/06/20 09:04:36;;;;;;;3.95;2.10;;;;;;;26.10;81.85;100097.13;5019708;28;20049;-82
2023/06/20 09:07:17;;;;;;;3.38;1.83;;;;;;;25.26;86.94;100088.41;5052450;28;20029;-81
2023/06/20 09:09:43;;;;;;;3.85;2.45;;;;;;;25.06;88.74;100077.56;5019675;28;20155;-82
2023/06/20 09:12:11;;;;;;;3.63;2.50;;;;;;;25.84;86.92;100093.06;5036086;28;20029;-81
2023/06/20 09:14:36;;;;;;;4.25;2.00;;;;;;;26.22;79.87;100093.94;5052408;28;20036;-81
2023/06/20 09:17:03;;;;;;;3.63;2.28;;;;;;;26.00;83.12;100083.47;5035497;28;20021;-83
2023/06/20 09:19:41;;;;;;;4.75;2.30;;;;;;;27.16;79.38;100090.28;5052307;28;20478;-82
2023/06/20 09:22:07;;;;;;;4.20;2.40;;;;;;;27.71;74.87;100095.13;5019468;28;20529;-83
2023/06/20 09:24:41;;;;;;;3.50;2.22;;;;;;;28.50;70.98;100094.06;5035607;28;20025;-82
2023/06/20 09:27:06;;;;;;;3.45;2.35;;;;;;;28.34;66.68;100089.94;5035575;28;20475;-82
2023/06/20 09:29:32;;;;;;;3.17;2.42;;;;;;;28.44;67.18;100087.78;5019246;28;20048;-84
2023/06/20 09:31:58;;;;;;;3.90;2.33;;;;;;;28.26;68.45;100083.19;5035522;28;20036;-83
2023/06/20 09:34:23;;;;;;;3.05;1.90;;;;;;;27.08;70.16;100087.41;5035434;28;20086;-84
2023/06/20 09:36:49;;;;;;;3.45;2.17;;;;;;;24.98;76.77;100087.25;5053371;28;20406;-85
2023/06/20 09:39:22;;;;;;;3.83;2.47;;;;;;;26.98;72.62;100085.66;5035364;28;20533;-84
2023/06/20 09:41:49;;;;;;;4.05;2.28;;;;;;;29.10;67.68;100092.88;5019894;28;20029;-84
2023/06/20 09:44:16;;;;;;;3.38;2.00;;;;;;;28.90;63.96;100097.78;5052233;28;20065;-84
2023/06/20 09:46:42;;;;;;;4.03;1.80;;;;;;;27.57;65.13;100099.78;5051811;28;20447;-85
2023/06/20 09:49:11;;;;;;;2.67;1.90;;;;;;;27.17;65.23;100103.00;5035732;28;20060;-84
2023/06/20 09:52:01;;;;;;;2.95;1.85;;;;;;;28.02;62.71;100084.28;5019001;28;20483;-84
2023/06/20 09:54:43;;;;;;;2.90;2.20;;;;;;;27.80;60.01;100095.22;5053207;28;20464;-84
2023/06/20 09:57:12;;;;;;;5.57;2.10;;;;;;;26.51;63.31;100084.69;5035406;28;20037;-84
2023/06/20 09:59:41;;;;;;;3.08;2.08;;;;;;;24.78;69.19;100080.00;5035143;28;20021;-84
2023/06/20 10:02:09;;;;;;;3.25;2.28;;;;;;;24.05;73.74;100069.72;5019182;28;20533;-83
2023/06/20 10:04:42;;;;;;;4.15;2.47;;;;;;;24.74;71.90;100071.53;5035628;28;20029;-84
2023/06/20 10:07:12;;;;;;;3.15;1.70;;;;;;;25.34;66.25;100076.78;5052059;28;20136;-85
2023/06/20 10:09:40;;;;;;;4.18;2.40;;;;;;;25.15;69.41;100076.69;5051663;28;20112;-85
2023/06/20 10:12:07;;;;;;;3.28;1.80;;;;;;;26.21;61.91;100072.19;5051945;28;20471;-84
2023/06/20 10:14:33;;;;;;;2.65;1.83;;;;;;;27.27;57.78;100065.31;5019004;28;20039;-85
2023/06/20 10:17:07;;;;;;;3.33;2.58;;;;;;;27.52;58.28;100066.75;5051877;28;20032;-85
2023/06/20 10:19:45;;;;;;;;;;;;;;;30.09;52.28;100074.09;5035630;28;20052;-85
2023/06/20 10:22:11;;;;;;;2.50;2.10;;;;;;;31.47;46.11;100075.16;5054203;28;20011;-85
2023/06/20 10:24:39;;;;;;;2.58;2.13;;;;;;;32.58;43.89;100065.69;5055501;28;20120;-85
2023/06/20 10:27:05;;;;;;;2.58;1.50;;;;;;;32.53;41.73;100071.47;5022464;28;20127;-84
2023/06/20 10:29:39;;;;;;;3.25;2.30;;;;;;;32.16;42.59;100090.69;5055362;28;20029;-85
2023/06/20 10:32:07;;;;;;;2.75;1.92;;;;;;;33.29;38.88;100080.56;5038974;28;20036;-85
2023/06/20 10:34:38;;;;;;;2.30;2.00;;;;;;;34.50;36.12;100078.09;5038808;28;20037;-85
2023/06/20 10:37:24;;;;;;;3.15;1.75;;;;;;;32.26;36.09;100072.81;5022268;28;20025;-85
2023/06/20 10:39:58;;;;;;;2.47;1.77;;;;;;;31.17;36.72;100070.66;5056646;28;20029;-84
2023/06/20 10:42:43;;;;;;;3.58;1.85;;;;;;;28.88;41.37;100072.38;5022360;28;20041;-84
2023/06/20 10:45:19;;;;;;;3.00;1.60;;;;;;;27.07;44.42;100070.06;5038079;28;20128;-85
2023/06/20 10:47:46;;;;;;;4.13;2.08;;;;;;;25.91;48.80;100073.41;5055138;28;20090;-84
2023/06/20 10:50:13;;;;;;;1.88;1.58;;;;;;;25.10;49.13;100079.44;5022235;28;20120;-84
2023/06/20 10:52:40;;;;;;;3.53;1.58;;;;;;;24.04;51.95;100066.16;5022592;28;20029;-84
2023/06/20 10:55:16;;;;;;;2.58;1.27;;;;;;;23.51;53.96;100074.00;5038146;28;20037;-84
2023/06/20 10:57:49;;;;;;;2.03;1.60;;;;;;;22.99;56.82;100080.66;5055776;28;20040;-84
2023/06/20 11:00:19;;;;;;;7.68;2.45;;;;;;;22.77;59.62;100089.94;5038420;28;20131;-85
2023/06/20 11:02:49;;;;;;;2.70;1.85;;;;;;;22.49;61.85;100087.72;5054770;28;20032;-84
2023/06/20 11:05:15;;;;;;;2.88;1.90;;;;;;;22.03;62.92;100076.63;5038136;28;20029;-85
2023/06/20 11:07:54;;;;;;;2.60;1.67;;;;;;;21.59;64.17;100086.00;5038484;28;20450;-85
2023/06/20 11:10:30;;;;;;;2.22;1.40;;;;;;;21.18;65.20;100090.38;5038260;28;20098;-85
2023/06/20 11:12:58;;;;;;;4.90;1.55;;;;;;;20.68;67.35;100076.00;5055995;28;20028;-85
2023/06/20 11:15:29;;;;;;;3.30;1.77;;;;;;;20.40;69.21;100093.44;5054311;28;20029;-85
2023/06/20 11:17:56;;;;;;;4.03;1.80;;;;;;;20.02;72.02;100094.41;5037903;28;20029;-83
2023/06/20 11:20:24;;;;;;;3.08;1.60;;;;;;;19.61;75.25;100091.09;5037824;28;20450;-84
2023/06/20 11:22:53;;;;;;;4.75;1.90;;;;;;;19.07;78.51;100076.16;5054131;28;20384;-84
2023/06/20 11:25:28;;;;;;;2.40;1.40;;;;;;;18.53;81.31;100074.94;5005336;28;20136;-84